createdAt,value
2019-04-23T00:02:29.768Z,81.50
2019-04-23T00:05:02.767Z,82.10
2019-04-23T00:10:12.343Z,83.10
2019-04-23T00:12:43.645Z,83.80
2019-04-23T00:15:12.019Z,84.50
2019-04-23T00:17:41.929Z,85.30
2019-04-23T00:23:02.452Z,86.60
2019-04-23T00:30:43.822Z,88.90
2019-04-23T00:33:12.598Z,89.50
2019-04-23T00:35:45.231Z,90.20
2019-04-23T00:38:19.718Z,90.70
2019-04-23T00:40:43.906Z,91.00
2019-04-23T00:43:22.945Z,91.30
2019-04-23T00:48:32.603Z,92.20
2019-04-23T00:50:58.613Z,92.40
2019-04-23T00:53:24.901Z,92.70
2019-04-23T00:55:55.741Z,93.10
2019-04-23T00:58:27.830Z,93.80
2019-04-23T01:01:00.504Z,94.10
2019-04-23T01:03:24.056Z,94.50
2019-04-23T01:06:00.697Z,94.80
2019-04-23T01:08:30.202Z,95.00
2019-04-23T01:13:43.226Z,95.60
2019-04-23T01:16:09.960Z,95.90
2019-04-23T01:20:56.586Z,96.90
2019-04-23T01:23:44.353Z,97.20
2019-04-23T01:26:29.596Z,97.60
2019-04-23T01:29:07.899Z,98.10
2019-04-23T01:31:44.558Z,98.50
2019-04-23T01:34:13.042Z,98.90
2019-04-23T01:36:36.210Z,99.40
2019-04-23T01:39:14.254Z,99.90
2019-04-23T01:41:47.578Z,99.90
2019-04-23T01:44:22.480Z,99.90
2019-04-23T01:46:49.435Z,99.90
2019-04-23T01:49:20.783Z,99.90
2019-04-23T01:51:53.232Z,99.90
2019-04-23T01:54:18.891Z,99.90
2019-04-23T01:56:47.220Z,99.90
2019-04-23T01:59:29.445Z,99.90
2019-04-23T02:01:58.395Z,99.90
2019-04-23T02:04:28.505Z,99.90
2019-04-23T02:06:57.993Z,99.90
2019-04-23T02:09:37.095Z,99.90
2019-04-23T02:12:07.507Z,99.90
2019-04-23T02:14:35.774Z,99.90
2019-04-23T02:17:10.308Z,99.90
2019-04-23T02:19:44.726Z,99.90
2019-04-23T02:22:13.234Z,99.90
2019-04-23T02:24:47.523Z,99.90
2019-04-23T02:27:19.329Z,99.90
2019-04-23T02:30:05.776Z,99.90
2019-04-23T02:32:53.669Z,99.90
2019-04-23T02:35:20.781Z,99.90
2019-04-23T02:37:49.237Z,99.90
2019-04-23T02:40:09.089Z,99.90
2019-04-23T02:45:07.153Z,99.90
2019-04-23T02:48:14.579Z,99.90
2019-04-23T02:50:29.622Z,99.90
2019-04-23T02:52:38.717Z,99.90
2019-04-23T02:55:17.722Z,99.90
2019-04-23T03:00:20.990Z,99.90
2019-04-23T03:02:54.559Z,99.90
2019-04-23T03:05:22.205Z,99.90
2019-04-23T03:07:45.899Z,99.90
2019-04-23T03:13:09.788Z,99.90
2019-04-23T03:15:43.692Z,99.90
2019-04-23T03:18:31.928Z,99.90
2019-04-23T03:21:19.610Z,99.90
2019-04-23T03:39:29.984Z,99.90
2019-04-23T03:41:34.729Z,99.90
2019-04-23T03:43:57.198Z,99.90
2019-04-23T03:46:29.575Z,99.90
2019-04-23T03:49:03.740Z,99.90
2019-04-23T03:51:34.089Z,99.90
2019-04-23T03:54:20.839Z,99.90
2019-04-23T03:56:48.654Z,99.90
2019-04-23T03:59:19.881Z,99.90
2019-04-23T04:02:00.603Z,99.90
2019-04-23T04:11:33.709Z,99.90
2019-04-23T04:16:55.291Z,99.90
2019-04-23T04:19:31.577Z,99.90
2019-04-23T04:21:58.445Z,99.90
2019-04-23T04:26:57.949Z,99.90
2019-04-23T04:29:32.473Z,99.90
2019-04-23T04:32:02.591Z,99.90
2019-04-23T04:34:56.187Z,99.90
2019-04-23T04:37:29.063Z,99.90
2019-04-23T04:39:39.551Z,99.90
2019-04-23T04:42:04.620Z,99.90
2019-04-23T04:47:15.535Z,99.90
2019-04-23T04:54:26.254Z,99.90
2019-04-23T04:59:48.014Z,99.90
2019-04-23T05:02:26.077Z,99.90
2019-04-23T05:04:55.974Z,99.90
2019-04-23T05:07:22.907Z,99.90
2019-04-23T05:15:02.691Z,99.90
2019-04-23T05:17:27.573Z,99.90
2019-04-23T05:19:52.769Z,99.90
2019-04-23T05:22:26.758Z,99.90
2019-04-23T05:24:55.433Z,99.90
2019-04-23T05:27:34.564Z,99.90
2019-04-23T05:30:06.076Z,99.90
2019-04-23T05:32:30.532Z,99.90
2019-04-23T05:35:07.999Z,99.90
2019-04-23T05:37:45.176Z,99.90
2019-04-23T05:40:02.565Z,96.70
2019-04-23T05:42:32.054Z,95.20
2019-04-23T05:45:06.088Z,94.80
2019-04-23T05:47:33.369Z,93.40
2019-04-23T05:52:49.849Z,92.60
2019-04-23T05:55:07.602Z,91.20
2019-04-23T05:57:39.120Z,89.10
2019-04-23T06:00:21.279Z,86.00
2019-04-23T06:02:53.873Z,89.20
2019-04-23T06:05:19.354Z,89.10
2019-04-23T06:07:47.394Z,89.00
2019-04-23T06:10:24.165Z,85.30
2019-04-23T06:12:50.672Z,81.30
2019-04-23T06:15:29.033Z,80.70
2019-04-23T06:18:02.257Z,81.90
2019-04-23T06:20:28.424Z,83.70
2019-04-23T06:23:01.169Z,85.00
2019-04-23T06:28:03.492Z,82.10
2019-04-23T06:30:40.638Z,80.90
2019-04-23T06:33:05.846Z,80.60
2019-04-23T06:35:39.058Z,76.00
2019-04-23T06:40:42.211Z,78.10
2019-04-23T06:45:45.932Z,80.30
2019-04-23T06:48:21.829Z,79.80
2019-04-23T06:53:21.478Z,78.20
2019-04-23T06:55:56.375Z,79.70
2019-04-23T06:58:32.689Z,77.50
2019-04-23T07:03:31.817Z,75.30
2019-04-23T07:06:16.829Z,77.40
2019-04-23T07:16:28.254Z,78.90
2019-04-23T07:18:48.947Z,76.80
2019-04-23T07:21:28.058Z,77.50
2019-04-23T07:24:05.198Z,79.20
2019-04-23T07:28:56.367Z,78.50
2019-04-23T07:31:26.547Z,78.00
2019-04-23T07:34:01.254Z,77.70
2019-04-23T07:36:30.895Z,79.60
2019-04-23T07:39:06.058Z,77.60
2019-04-23T07:47:11.736Z,89.70
2019-04-23T07:49:43.817Z,91.70
2019-04-23T07:52:13.269Z,93.10
2019-04-23T07:54:42.453Z,94.20
2019-04-23T07:57:15.275Z,94.30
2019-04-23T07:59:44.023Z,94.70
2019-04-23T08:02:16.367Z,95.40
2019-04-23T08:04:54.374Z,95.70
2019-04-23T08:07:16.436Z,95.70
2019-04-23T08:09:48.067Z,96.10
2019-04-23T08:12:25.189Z,96.20
2019-04-23T08:14:53.578Z,95.90
2019-04-23T08:17:18.430Z,95.70
2019-04-23T08:19:56.271Z,96.20
2019-04-23T08:22:26.953Z,96.10
2019-04-23T08:27:27.921Z,96.00
2019-04-23T08:30:01.766Z,96.10
2019-04-23T08:32:55.359Z,96.60
2019-04-23T08:37:56.963Z,96.70
2019-04-23T08:40:15.127Z,96.10
2019-04-23T08:45:22.662Z,96.20
2019-04-23T08:48:00.733Z,96.20
2019-04-23T08:50:34.079Z,95.90
2019-04-23T08:53:15.030Z,96.20
2019-04-23T08:58:04.659Z,94.80
2019-04-23T09:00:37.324Z,95.30
2019-04-23T09:03:11.138Z,95.20
2019-04-23T09:05:45.217Z,95.00
2019-04-23T09:08:25.296Z,95.20
2019-04-23T09:10:54.699Z,95.40
2019-04-23T09:13:40.178Z,94.60
2019-04-23T09:15:51.051Z,94.70
2019-04-23T09:18:21.012Z,94.90
2019-04-23T09:20:48.106Z,95.00
2019-04-23T09:23:28.371Z,95.00
2019-04-23T09:25:54.158Z,94.20
2019-04-23T09:28:34.540Z,94.00
2019-04-23T09:31:14.488Z,94.00
2019-04-23T09:33:46.787Z,94.20
2019-04-23T09:36:25.453Z,93.90
2019-04-23T09:39:00.159Z,94.10
2019-04-23T09:41:42.337Z,93.70
2019-04-23T09:47:19.412Z,93.80
2019-04-23T09:49:46.681Z,93.80
2019-04-23T09:52:21.780Z,93.90
2019-04-23T09:54:57.637Z,93.70
2019-04-23T09:57:15.950Z,93.50
2019-04-23T10:00:21.801Z,93.30
2019-04-23T10:02:19.620Z,93.30
2019-04-23T10:04:44.917Z,93.20
2019-04-23T10:07:17.285Z,93.00
2019-04-23T10:09:34.388Z,93.30
2019-04-23T10:12:07.158Z,92.60
2019-04-23T10:14:36.915Z,92.00
2019-04-23T10:17:08.336Z,91.20
2019-04-23T10:19:38.063Z,91.20
2019-04-23T10:22:09.163Z,90.70
2019-04-23T10:24:39.272Z,90.60
2019-04-23T10:27:10.053Z,90.30
2019-04-23T10:29:41.798Z,90.20
2019-04-23T10:32:11.772Z,89.20
2019-04-23T10:34:52.736Z,90.00
2019-04-23T10:37:13.601Z,88.60
2019-04-23T10:39:48.225Z,89.60
2019-04-23T10:42:16.109Z,89.00
2019-04-23T10:44:52.108Z,88.10
2019-04-23T10:48:17.322Z,88.50
2019-04-23T10:58:15.814Z,86.90
2019-04-23T11:03:42.064Z,86.40
2019-04-23T11:08:24.039Z,86.80
2019-04-23T11:10:58.918Z,86.40
2019-04-23T11:13:38.277Z,87.00
2019-04-23T11:16:42.032Z,87.60
2019-04-23T11:18:55.335Z,87.70
2019-04-23T11:23:49.716Z,88.90
2019-04-23T11:26:24.403Z,88.20
2019-04-23T11:28:46.210Z,88.20
2019-04-23T11:31:31.606Z,89.00
2019-04-23T11:41:36.551Z,88.60
2019-04-23T11:44:04.022Z,88.80
2019-04-23T11:49:19.626Z,88.20
2019-04-23T11:51:45.976Z,88.30
2019-04-23T11:59:17.536Z,88.40
2019-04-23T12:07:14.114Z,87.00
2019-04-23T12:09:53.726Z,87.40
2019-04-23T12:12:31.337Z,86.80
2019-04-23T12:15:23.890Z,86.90
2019-04-23T12:17:39.233Z,87.20
2019-04-23T12:22:42.488Z,86.40
2019-04-23T12:25:17.804Z,86.70
2019-04-23T12:27:33.197Z,87.50
2019-04-23T12:35:17.755Z,86.50
2019-04-23T12:37:56.199Z,86.80
2019-04-23T12:40:25.024Z,86.00
2019-04-23T12:50:44.870Z,85.60
2019-04-23T12:53:25.573Z,85.50
2019-04-23T12:58:09.982Z,85.60
2019-04-23T13:03:08.498Z,85.80
2019-04-23T13:05:51.003Z,86.10
2019-04-23T13:10:45.273Z,85.30
2019-04-23T13:13:23.839Z,85.90
2019-04-23T13:15:48.111Z,86.40
2019-04-23T13:18:26.861Z,86.10
2019-04-23T13:20:50.640Z,85.00
2019-04-23T13:28:27.686Z,85.60
2019-04-23T13:31:04.473Z,85.90
2019-04-23T13:43:40.446Z,85.90
2019-04-23T13:48:40.094Z,85.00
2019-04-23T13:54:01.604Z,85.40
2019-04-23T13:56:24.255Z,85.50
2019-04-23T13:58:51.189Z,85.60
2019-04-23T14:01:29.071Z,85.30
2019-04-23T14:04:16.831Z,83.60
2019-04-23T14:09:03.185Z,81.70
2019-04-23T14:11:26.314Z,81.10
2019-04-23T14:14:21.958Z,80.90
2019-04-23T14:16:39.310Z,79.80
2019-04-23T14:21:51.382Z,79.00
2019-04-23T14:24:17.715Z,79.80
2019-04-23T14:26:41.761Z,79.90
2019-04-23T14:29:14.990Z,79.30
2019-04-23T14:31:42.984Z,78.80
2019-04-23T14:36:52.547Z,79.00
2019-04-23T14:39:27.416Z,79.50
2019-04-23T14:41:53.710Z,79.70
2019-04-23T14:44:19.765Z,80.50
2019-04-23T14:46:58.347Z,80.60
2019-04-23T14:49:40.736Z,79.90
2019-04-23T14:52:09.201Z,80.00
2019-04-23T14:55:19.929Z,79.70
2019-04-23T14:59:40.602Z,80.00
2019-04-23T15:02:18.135Z,80.10
2019-04-23T15:04:47.258Z,80.70
2019-04-23T15:07:24.240Z,80.20
2019-04-23T15:09:57.665Z,80.30
2019-04-23T15:12:22.460Z,80.40
2019-04-23T15:15:00.294Z,80.30
2019-04-23T15:17:20.592Z,80.40
2019-04-23T15:19:58.084Z,81.00
2019-04-23T15:22:30.698Z,80.80
2019-04-23T15:25:10.732Z,80.90
2019-04-23T15:28:03.381Z,81.40
2019-04-23T15:29:56.470Z,81.00
2019-04-23T15:32:51.351Z,81.80
2019-04-23T15:35:15.237Z,82.00
2019-04-23T15:40:15.156Z,81.80
2019-04-23T15:42:44.343Z,82.00
2019-04-23T15:47:54.039Z,83.00
2019-04-23T15:52:54.333Z,83.80
2019-04-23T15:55:36.851Z,84.30
2019-04-23T16:00:17.817Z,84.70
2019-04-23T16:02:24.950Z,85.30
2019-04-23T16:04:56.034Z,85.50
2019-04-23T16:07:41.470Z,84.80
2019-04-23T16:10:28.392Z,84.80
2019-04-23T16:13:10.147Z,84.70
2019-04-23T16:15:25.736Z,84.00
2019-04-23T16:18:17.278Z,83.90
2019-04-23T16:20:47.359Z,83.40
2019-04-23T16:23:05.415Z,83.20
2019-04-23T16:25:36.529Z,83.40
2019-04-23T16:28:09.450Z,83.70
2019-04-23T16:30:38.228Z,83.50
2019-04-23T16:33:38.660Z,83.60
2019-04-23T16:38:34.270Z,83.30
2019-04-23T16:40:53.468Z,83.70
2019-04-23T16:46:03.076Z,84.40
2019-04-23T16:51:16.640Z,84.70
2019-04-23T16:56:11.473Z,85.10
2019-04-23T17:01:07.295Z,86.20
2019-04-23T17:03:36.275Z,86.30
2019-04-23T17:06:24.751Z,86.70
2019-04-23T17:08:52.907Z,87.00
2019-04-23T17:11:29.518Z,87.70
2019-04-23T17:13:50.986Z,88.10
2019-04-23T17:21:22.298Z,89.00
2019-04-23T17:24:15.410Z,89.50
2019-04-23T17:26:23.949Z,89.60
2019-04-23T17:28:59.998Z,89.60
2019-04-23T17:36:51.903Z,90.20
2019-04-23T17:39:10.666Z,90.30
2019-04-23T17:42:05.520Z,90.50
2019-04-23T17:44:34.376Z,90.60
2019-04-23T17:47:10.277Z,90.70
2019-04-23T17:49:35.143Z,90.90
2019-04-23T17:52:14.756Z,91.00
2019-04-23T17:54:54.719Z,91.30
2019-04-23T18:00:09.847Z,91.60
2019-04-23T18:05:02.632Z,91.90
2019-04-23T18:07:43.761Z,92.00
2019-04-23T18:12:41.852Z,92.40
2019-04-23T18:15:06.196Z,92.60
2019-04-23T18:17:35.520Z,92.80
2019-04-23T18:20:12.431Z,93.00
2019-04-23T18:23:04.757Z,93.30
2019-04-23T18:25:40.660Z,93.50
2019-04-23T18:28:00.567Z,93.70
2019-04-23T18:30:26.399Z,93.80
2019-04-23T18:35:33.821Z,94.10
2019-04-23T18:38:22.865Z,94.40
2019-04-23T18:41:00.793Z,94.50
2019-04-23T18:43:35.705Z,94.60
2019-04-23T18:45:54.083Z,94.80
2019-04-23T18:56:19.348Z,95.00
2019-04-23T18:58:50.335Z,95.10
2019-04-23T19:01:28.147Z,95.10
2019-04-23T19:03:55.347Z,95.20
2019-04-23T19:06:32.608Z,95.30
2019-04-23T19:09:47.760Z,95.30
2019-04-23T19:12:08.778Z,95.30
2019-04-23T19:14:47.885Z,95.40
2019-04-23T19:24:38.984Z,95.80
2019-04-23T19:29:46.214Z,96.10
2019-04-23T19:32:24.399Z,96.30
2019-04-23T19:34:56.441Z,96.40
2019-04-23T19:37:12.916Z,96.60
2019-04-23T19:42:19.290Z,96.50
2019-04-23T19:44:48.961Z,96.70
2019-04-23T19:47:26.736Z,96.70
2019-04-23T19:49:50.738Z,96.90
2019-04-23T19:52:35.045Z,97.10
2019-04-23T19:57:40.558Z,97.50
2019-04-23T20:00:31.584Z,97.70
2019-04-23T20:02:55.282Z,98.00
2019-04-23T20:04:59.540Z,98.40
2019-04-23T20:10:31.244Z,99.20
2019-04-23T20:12:41.954Z,99.40
2019-04-23T20:15:30.937Z,99.70
2019-04-23T20:20:08.811Z,99.90
2019-04-23T20:22:51.206Z,99.90
2019-04-23T20:30:55.116Z,99.90
2019-04-23T20:35:45.005Z,99.90
2019-04-23T20:40:48.569Z,99.90
2019-04-23T20:43:15.152Z,99.90
2019-04-23T20:48:12.633Z,99.90
2019-04-23T20:50:52.297Z,99.90
2019-04-23T20:53:22.778Z,99.90
2019-04-23T20:56:07.232Z,99.90
2019-04-23T20:58:38.825Z,99.90
2019-04-23T21:01:13.167Z,99.90
2019-04-23T21:03:56.928Z,99.90
2019-04-23T21:11:18.574Z,99.90
2019-04-23T21:16:23.478Z,99.90
2019-04-23T21:18:48.364Z,99.90
2019-04-23T21:21:27.875Z,99.90
2019-04-23T21:23:53.661Z,99.90
2019-04-23T21:26:29.928Z,99.90
2019-04-23T21:29:03.948Z,99.90
2019-04-23T21:31:34.423Z,99.90
2019-04-23T21:34:06.049Z,99.90
2019-04-23T21:36:40.427Z,99.90
2019-04-23T21:39:49.249Z,99.90
2019-04-23T21:42:14.123Z,99.90
2019-04-23T21:44:31.508Z,99.90
2019-04-23T21:47:02.643Z,99.90
2019-04-23T21:49:50.697Z,99.90
2019-04-23T21:52:04.731Z,99.90
2019-04-23T21:54:36.598Z,99.90
2019-04-23T21:57:12.170Z,99.90
2019-04-23T21:59:48.225Z,99.90
2019-04-23T22:02:14.986Z,99.90
2019-04-23T22:04:44.491Z,99.90
2019-04-23T22:07:19.391Z,99.90
2019-04-23T22:12:19.614Z,99.90
2019-04-23T22:17:24.962Z,99.90
2019-04-23T22:20:04.022Z,99.90
2019-04-23T22:22:31.993Z,99.90
2019-04-23T22:24:53.342Z,99.90
2019-04-23T22:27:24.247Z,99.90
2019-04-23T22:30:01.303Z,99.90
2019-04-23T22:32:45.826Z,99.90
2019-04-23T22:35:07.235Z,99.90
2019-04-23T22:37:29.965Z,99.90
2019-04-23T22:43:07.441Z,99.90
2019-04-23T22:45:10.190Z,99.90
2019-04-23T22:47:42.694Z,99.90
2019-04-23T22:50:11.254Z,99.90
2019-04-23T22:52:51.738Z,99.90
2019-04-23T22:57:59.374Z,99.90
2019-04-23T23:00:19.148Z,99.90
2019-04-23T23:03:03.721Z,99.90
2019-04-23T23:05:39.815Z,99.90
2019-04-23T23:08:10.784Z,99.90
2019-04-23T23:10:37.399Z,99.90
2019-04-23T23:13:10.954Z,99.90
2019-04-23T23:15:41.737Z,99.90
2019-04-23T23:18:14.623Z,99.90
2019-04-23T23:20:51.224Z,99.90
2019-04-23T23:23:21.523Z,99.90
2019-04-23T23:31:00.526Z,99.90
2019-04-23T23:33:17.531Z,99.90
2019-04-23T23:35:54.173Z,99.90
2019-04-23T23:38:25.489Z,99.90
2019-04-23T23:41:07.720Z,99.90
2019-04-23T23:43:24.067Z,99.90
2019-04-23T23:46:04.283Z,99.90
2019-04-23T23:48:28.058Z,99.90
2019-04-23T23:51:16.518Z,99.90
2019-04-23T23:53:40.570Z,99.90
2019-04-23T23:58:42.526Z,99.90
